Aérodrome :
LOGIN :

S'inscrire | Disclaimer

   EN    FR    IT 

 










Légende :    VFR   VFR Marginal   IFR   IFR Intensif   IFR Très Intensif
Visi : 
Plafond : 
>= 8 km
>= 3000ft
5 à 8 km
1000 à 3000 ft
1500m à 5 km
500 à 1000 ft
800 à 1500m
200 à 500 ft
< 800m
< 200 ft
Symboles :   Orages  Brouillard  Fortes neiges  Fortes précipitations  Vent > 20 kt
SIGMETs :   Divers  Orages  Givrage  Turbulence  Onde Orograph.  Cendres Volcan.






- Altitude de l'aérodrome : 194 ft
- Code IATA : LME


LFRM - Le Mans

DERNIER METAR :
  • 150130Z AUTO 22015G26KT 9999 OVC022 12/08 Q1000

METARs EXPIRÉS :
  • 150100Z AUTO 22012KT 180V250 9999 BKN022 OVC029 12/08 Q1000
  • 150030Z AUTO 21011G25KT 180V240 9999 FEW020 BKN032 BKN041 11/09 Q1000
  • 150000Z AUTO 21014KT 180V260 9999 FEW020 SCT090 OVC110 11/09 Q0999
  • 142330Z AUTO 20012G23KT 170V240 9999 SCT012 BKN017 BKN058 11/09 Q0999
  • 142300Z AUTO 20012KT 160V230 9999 BKN014 BKN058 BKN072 11/09 Q0999

TAF TAF LFRM
Valide du 14 à 12h jusqu'au 15 à 12h UTC


141100Z 1412/1512 25015KT 9999 SCT030
TEMPO 1412/1413 24015G25KT -SHRA BKN020
BECMG 1417/1419 4000 -RA BKN011 BKN025
TEMPO 1421/1424 2000 RA BKN008 BKN012
BECMG 1423/1501 9999 NSW SCT020
TEMPO 1501/1512 4000 SHRA SCT012 BKN020
PROB40
TEMPO 1423/1504 24020G35KT



MET'MAP, la Météo Aéronautique d'un coup d'oeil ! - Copyright ORBIFLY Décembre 2007 - Disclaimer

ORBIFLY MET'MAP TEAM :

Programmation & Développement : Alexandra Zaïnal
Sur une idée originale de : Baudouin d'Aumeries
Assistance à la programmation : Marc-Olivier Méhu
Soutien technique & logistique : Manuel Goepfert

Contact : metmap@orbifly.com




SOURCES & CREDITS :

   NOAA